Time;durP1;ratioP1;P1;durP2;ratioP2;P2;SDS_P1;SDS_P2;PMS_P1;PMS_P2;Temp;Humidity;BMP_temperature;BMP_pressure;BME280_temperature;BME280_humidity;BME280_pressure;Samples;Min_cycle;Max_cycle;Signal;HPM_P1;HPM_P2
2023/06/19 00:04:29;;;;;;;0.10;0.10;;;;;;;-145.06;84.01;90126.69;10375544;28;20032;-89
2023/06/19 00:09:29;;;;;;;0.10;0.10;;;;;;;-145.06;83.56;90169.59;10358019;28;20402;-90
2023/06/19 00:14:29;;;;;;;0.10;0.10;;;;;;;-145.06;82.35;90091.94;10357647;28;20037;-89
2023/06/19 00:19:30;;;;;;;0.03;0.03;;;;;;;-145.06;81.61;90073.56;10372051;28;20029;-89
2023/06/19 00:24:30;;;;;;;0.00;0.00;;;;;;;-145.06;80.65;90010.19;10357963;28;20029;-91
2023/06/19 00:29:31;;;;;;;0.10;0.10;;;;;;;-145.06;80.71;90102.16;10356897;28;20018;-89
2023/06/19 00:34:31;;;;;;;0.05;0.05;;;;;;;-145.06;78.67;90108.28;10356172;28;20071;-89
2023/06/19 00:39:32;;;;;;;0.10;0.10;;;;;;;-145.06;79.62;90040.84;10356990;28;20372;-90
2023/06/19 00:44:32;;;;;;;0.10;0.10;;;;;;;-145.06;80.28;90069.47;10356371;28;20075;-89
2023/06/19 00:49:33;;;;;;;0.00;0.00;;;;;;;-145.06;80.67;90083.78;10355710;28;20029;-89
2023/06/19 00:54:33;;;;;;;0.10;0.10;;;;;;;-145.06;81.84;90175.72;10356156;28;20487;-89
2023/06/19 00:59:34;;;;;;;0.10;0.10;;;;;;;-145.06;83.32;90106.25;10374119;28;20399;-90
2023/06/19 01:04:34;;;;;;;0.10;0.10;;;;;;;-145.06;82.64;90190.03;10354130;28;20049;-89
2023/06/19 01:09:46;;;;;;;0.10;0.10;;;;;;;-145.06;83.69;90100.13;10354792;28;20029;-90
2023/06/19 01:15:00;;;;;;;0.10;0.10;;;;;;;-145.06;85.23;90159.38;10370204;28;20029;-89
2023/06/19 01:20:06;;;;;;;0.00;0.00;;;;;;;-145.06;85.08;90198.22;10356037;28;20127;-89
2023/06/19 01:25:06;;;;;;;0.10;0.10;;;;;;;-145.06;85.80;90157.34;10351216;28;20057;-89
2023/06/19 01:30:10;;;;;;;0.10;0.10;;;;;;;-145.06;86.62;90206.38;10374184;28;20066;-89
2023/06/19 01:35:12;;;;;;;0.10;0.10;;;;;;;-145.06;86.77;90124.63;10377127;28;20461;-89
2023/06/19 01:40:15;;;;;;;0.10;0.10;;;;;;;-145.06;84.90;90194.13;10352339;28;20056;-89
2023/06/19 01:45:15;;;;;;;0.10;0.10;;;;;;;-145.06;84.35;90163.47;10353420;28;20057;-89
2023/06/19 01:50:16;;;;;;;0.10;0.10;;;;;;;-145.06;85.32;90212.50;10352798;28;20080;-89
2023/06/19 01:55:16;;;;;;;0.00;0.00;;;;;;;-145.06;83.83;90136.91;10352779;28;20117;-88
2023/06/19 02:00:17;;;;;;;0.10;0.10;;;;;;;-145.06;84.05;90245.22;10354399;28;20026;-89
2023/06/19 02:05:17;;;;;;;0.00;0.00;;;;;;;-145.06;83.45;90210.47;10353083;28;20104;-89
2023/06/19 02:10:18;;;;;;;0.10;0.10;;;;;;;-145.06;84.81;90216.59;10353371;28;20030;-89
2023/06/19 02:15:18;;;;;;;0.00;0.00;;;;;;;-145.06;83.76;90128.72;10370202;28;20022;-88
2023/06/19 02:20:20;;;;;;;0.10;0.10;;;;;;;-145.06;83.86;90181.88;10353193;28;20283;-89
2023/06/19 02:25:20;;;;;;;0.00;0.00;;;;;;;-145.06;84.07;90143.03;10370689;28;20307;-89
2023/06/19 02:30:21;;;;;;;0.10;0.10;;;;;;;-145.06;83.98;90259.53;10375199;28;20080;-88
2023/06/19 02:35:21;;;;;;;0.00;0.00;;;;;;;-145.06;84.43;90192.06;10355232;28;20028;-89
2023/06/19 02:40:21;;;;;;;0.10;0.10;;;;;;;-145.06;85.50;90145.06;10352495;28;20487;-89
2023/06/19 02:45:22;;;;;;;0.10;0.10;;;;;;;-145.06;86.34;90157.34;10366815;28;20506;-89
2023/06/19 02:50:22;;;;;;;0.10;0.10;;;;;;;-145.06;86.67;90212.50;10351951;28;20022;-88
2023/06/19 02:55:23;;;;;;;0.10;0.10;;;;;;;-145.06;85.83;90220.69;10351678;28;20289;-87
2023/06/19 03:00:23;;;;;;;0.00;0.00;;;;;;;-145.06;86.91;90282.00;10367987;28;20030;-87
2023/06/19 03:05:23;;;;;;;0.10;0.10;;;;;;;-145.06;85.55;90310.63;10368811;28;20032;-89
2023/06/19 03:10:24;;;;;;;0.08;0.08;;;;;;;-145.06;85.45;90183.91;10367230;28;20034;-88
2023/06/19 03:15:25;;;;;;;0.10;0.10;;;;;;;-145.06;86.46;90206.38;10348293;28;20026;-88
2023/06/19 03:20:27;;;;;;;0.10;0.10;;;;;;;-145.06;86.19;90181.88;10345458;28;20180;-88
2023/06/19 03:25:34;;;;;;;0.10;0.10;;;;;;;-145.06;87.18;90218.66;10363892;28;20496;-89
2023/06/19 03:30:34;;;;;;;0.10;0.10;;;;;;;-145.06;89.69;90222.72;10346009;28;20057;-89
2023/06/19 03:35:35;;;;;;;0.10;0.10;;;;;;;-145.06;88.66;90245.22;10365886;28;20061;-88
2023/06/19 03:40:35;;;;;;;0.10;0.10;;;;;;;-145.06;86.88;90208.44;10351035;28;20439;-89
2023/06/19 03:45:35;;;;;;;0.10;0.10;;;;;;;-145.06;86.73;90247.25;10353279;28;20125;-88
2023/06/19 03:50:36;;;;;;;0.10;0.10;;;;;;;-145.06;87.67;90241.13;10350388;28;20014;-89
2023/06/19 03:55:37;;;;;;;0.10;0.10;;;;;;;-145.06;87.39;90214.56;10367588;28;20029;-88
2023/06/19 04:00:37;;;;;;;0.10;0.10;;;;;;;-145.06;85.93;90279.97;10326325;28;20022;-86
2023/06/19 04:05:38;;;;;;;0.10;0.10;;;;;;;-145.06;85.67;90157.34;10365454;28;20054;-90
2023/06/19 04:10:39;;;;;;;0.10;0.10;;;;;;;-145.06;85.38;90202.31;10367579;28;20065;-88
2023/06/19 04:15:39;;;;;;;0.10;0.10;;;;;;;-145.06;84.49;90188.00;10373075;28;20467;-88
2023/06/19 04:20:40;;;;;;;0.10;0.10;;;;;;;-145.06;84.10;90177.78;10369765;28;20030;-88
2023/06/19 04:25:40;;;;;;;0.00;0.00;;;;;;;-145.06;84.94;90206.38;10355899;28;20030;-88
2023/06/19 04:30:40;;;;;;;0.00;0.00;;;;;;;-145.06;86.28;90161.44;10373374;28;20030;-89
2023/06/19 04:35:41;;;;;;;0.10;0.10;;;;;;;-145.06;86.14;90198.22;10357143;28;20292;-89
2023/06/19 04:40:43;;;;;;;0.10;0.10;;;;;;;-145.06;86.78;90226.81;10369794;28;20109;-88
2023/06/19 04:45:43;;;;;;;0.10;0.10;;;;;;;-145.06;86.90;90175.72;10374588;28;20546;-86
2023/06/19 04:50:43;;;;;;;0.10;0.10;;;;;;;-145.06;87.06;90329.00;10372514;28;20101;-87
2023/06/19 04:55:44;;;;;;;0.10;0.10;;;;;;;-145.06;85.78;90198.22;10354864;28;20033;-88
2023/06/19 05:00:48;;;;;;;0.00;0.00;;;;;;;-145.06;86.49;90185.94;10356561;28;20458;-87
2023/06/19 05:05:49;;;;;;;0.00;0.00;;;;;;;-145.06;85.88;90159.38;10355666;28;20025;-88
2023/06/19 05:10:49;;;;;;;0.10;0.10;;;;;;;-145.06;84.92;90188.00;10397675;23;20528;-91
2023/06/19 05:15:53;;;;;;;0.00;0.00;;;;;;;-145.06;85.63;90218.66;10416205;28;20376;-91
2023/06/19 05:20:53;;;;;;;0.00;0.00;;;;;;;-145.06;86.39;90110.34;10393289;28;20037;-92
2023/06/19 05:25:53;;;;;;;0.10;0.10;;;;;;;-145.06;87.26;90163.47;10391756;28;20029;-89
2023/06/19 05:30:54;;;;;;;0.10;0.10;;;;;;;-145.06;87.23;90239.09;10389415;28;20022;-92
2023/06/19 05:35:54;;;;;;;0.00;0.00;;;;;;;-145.06;86.06;90141.00;10392067;28;20402;-90
2023/06/19 05:40:54;;;;;;;0.10;0.10;;;;;;;-145.06;82.35;90106.25;10389718;28;20099;-91
2023/06/19 05:45:55;;;;;;;0.10;0.10;;;;;;;-145.06;82.76;90128.72;10408641;28;20030;-91
2023/06/19 05:50:56;;;;;;;0.10;0.10;;;;;;;-145.06;82.67;90085.81;10388427;28;20025;-90
2023/06/19 05:55:58;;;;;;;0.10;0.10;;;;;;;-145.06;82.10;90075.59;10387406;28;20112;-89
2023/06/19 06:00:58;;;;;;;0.10;0.10;;;;;;;-145.06;82.42;89997.94;10388221;28;20045;-91
2023/06/19 06:06:02;;;;;;;0.10;0.10;;;;;;;-145.06;88.66;90102.16;10388067;28;20112;-91
2023/06/19 06:11:03;;;;;;;0.00;0.00;;;;;;;-145.06;93.33;90151.22;10392026;28;20025;-90
2023/06/19 06:16:03;;;;;;;0.10;0.10;;;;;;;-145.06;93.74;90106.25;10386725;28;20033;-90
2023/06/19 06:21:04;;;;;;;0.10;0.10;;;;;;;-145.06;97.08;90177.78;10395470;28;20025;-91
2023/06/19 06:26:04;;;;;;;0.00;0.00;;;;;;;-145.06;95.40;90165.50;10385595;28;20025;-90
2023/06/19 06:31:05;;;;;;;0.03;0.03;;;;;;;-145.06;100.00;90145.06;10402823;28;20609;-92
2023/06/19 06:36:05;;;;;;;0.00;0.00;;;;;;;-145.06;100.00;90202.31;10404527;28;20103;-89
2023/06/19 06:41:06;;;;;;;0.10;0.10;;;;;;;-145.06;98.94;90136.91;10388564;28;20072;-91
2023/06/19 06:46:06;;;;;;;0.00;0.00;;;;;;;-145.06;99.22;90167.56;10388033;28;20051;-92
2023/06/19 06:51:06;;;;;;;0.10;0.10;;;;;;;-145.06;100.00;90094.00;10391670;28;20287;-92
2023/06/19 06:56:07;;;;;;;0.10;0.10;;;;;;;-145.06;100.00;90006.13;10385901;28;20060;-91
2023/06/19 07:01:07;;;;;;;0.10;0.10;;;;;;;-145.06;100.00;90185.94;10383888;28;20410;-91
2023/06/19 07:06:08;;;;;;;0.10;0.10;;;;;;;-145.06;100.00;90126.69;10383120;28;20026;-91
2023/06/19 07:11:21;;;;;;;0.00;0.00;;;;;;;-145.06;100.00;90161.44;10388472;28;20402;-91
2023/06/19 07:16:22;;;;;;;0.10;0.10;;;;;;;-145.06;100.00;90046.97;10378358;28;20255;-91
2023/06/19 07:21:22;;;;;;;0.10;0.10;;;;;;;-145.06;100.00;90006.13;10386032;28;20061;-91
2023/06/19 07:26:23;;;;;;;0.10;0.10;;;;;;;-145.06;100.00;89936.63;10383208;28;20021;-91
2023/06/19 07:31:23;;;;;;;0.05;0.05;;;;;;;-145.06;100.00;89871.25;10383696;28;20033;-90
2023/06/19 07:36:23;;;;;;;0.10;0.10;;;;;;;-145.06;100.00;89720.03;10385606;28;20072;-92
2023/06/19 07:41:23;;;;;;;0.08;0.08;;;;;;;-145.06;97.17;89654.63;10384711;28;20403;-90
2023/06/19 07:46:24;;;;;;;0.10;0.10;;;;;;;-145.06;95.00;89632.16;10388108;28;20018;-91
2023/06/19 07:51:24;;;;;;;0.10;0.10;;;;;;;-145.06;91.86;89601.50;10392644;28;20025;-89
2023/06/19 07:56:24;;;;;;;0.10;0.10;;;;;;;-145.06;85.31;89417.63;10389861;28;21446;-89
2023/06/19 08:01:25;;;;;;;0.10;0.10;;;;;;;-145.06;85.03;89201.03;10392933;28;20558;-89
2023/06/19 08:06:25;;;;;;;0.00;0.00;;;;;;;-145.06;77.55;89113.19;10389824;28;20052;-89
2023/06/19 08:11:26;;;;;;;0.10;0.10;;;;;;;-145.06;75.45;88902.75;10409627;28;20025;-90
2023/06/19 08:16:26;;;;;;;0.00;0.00;;;;;;;-145.06;62.68;88195.94;10386557;28;20075;-88
2023/06/19 08:21:27;;;;;;;0.00;0.00;;;;;;;-145.06;57.82;88046.84;10422886;28;20505;-89
2023/06/19 08:26:27;;;;;;;0.10;0.10;;;;;;;-145.06;52.02;87901.81;10394457;28;20037;-90
2023/06/19 08:31:28;;;;;;;0.00;0.00;;;;;;;-145.06;50.21;87979.44;10391772;28;20372;-89
2023/06/19 08:36:28;;;;;;;0.00;0.00;;;;;;;-145.06;50.96;88244.97;10405212;28;20086;-90
2023/06/19 08:41:29;;;;;;;0.10;0.10;;;;;;;-145.06;54.02;88198.00;10408691;28;20091;-89
2023/06/19 08:46:29;;;;;;;0.10;0.10;;;;;;;-145.06;47.76;87830.34;10418402;28;20014;-90
2023/06/19 08:51:32;;;;;;;0.10;0.10;;;;;;;-145.06;50.10;88163.25;10391446;28;20028;-90
2023/06/19 08:56:34;;;;;;;0.10;0.10;;;;;;;-145.06;53.02;87830.34;10389339;28;20506;-91
2023/06/19 09:01:34;;;;;;;0.10;0.10;;;;;;;-145.06;50.72;88112.19;10388368;28;20025;-90
2023/06/19 09:06:37;;;;;;;0.10;0.10;;;;;;;-145.06;47.13;88118.31;10401882;28;20375;-89
2023/06/19 09:11:43;;;;;;;0.10;0.10;;;;;;;-145.06;51.38;88359.34;10394725;28;20029;-89
2023/06/19 09:16:43;;;;;;;0.00;0.00;;;;;;;-145.06;51.16;88236.78;10392485;28;20034;-90
2023/06/19 09:21:43;;;;;;;0.00;0.00;;;;;;;-145.06;51.71;88132.63;10393480;28;20079;-90
2023/06/19 09:26:44;;;;;;;0.10;0.10;;;;;;;-145.06;51.29;87781.31;10393593;28;20041;-91
2023/06/19 09:31:44;;;;;;;0.00;0.00;;;;;;;-145.06;52.04;87662.84;10389394;28;20018;-91
2023/06/19 09:36:45;;;;;;;0.00;0.00;;;;;;;-145.06;47.25;88061.13;10390227;28;20022;-91
2023/06/19 09:41:49;;;;;;;0.00;0.00;;;;;;;-145.06;48.27;88008.03;10389962;28;20275;-91
2023/06/19 09:46:52;;;;;;;0.00;0.00;;;;;;;-145.06;48.61;88134.66;10395489;28;20017;-91
2023/06/19 09:51:52;;;;;;;0.10;0.10;;;;;;;-145.06;50.20;87687.38;10395328;28;20049;-91
2023/06/19 09:56:58;;;;;;;0.00;0.00;;;;;;;-145.06;52.37;87566.88;10385631;28;20029;-91
2023/06/19 10:01:58;;;;;;;0.10;0.10;;;;;;;-145.06;43.86;87767.03;10397597;28;20256;-90
2023/06/19 10:06:59;;;;;;;0.00;0.00;;;;;;;-145.06;45.74;87389.19;10411322;28;20448;-91
2023/06/19 10:12:00;;;;;;;0.10;0.10;;;;;;;-145.06;42.83;87403.50;10386199;28;20036;-92
2023/06/19 10:17:07;;;;;;;;;;;;;;;-145.06;43.06;87287.09;10388507;28;20276;-91
2023/06/19 10:22:08;;;;;;;0.10;0.10;;;;;;;-145.06;42.34;87262.56;10393522;28;20432;-91
2023/06/19 10:27:10;;;;;;;0.10;0.10;;;;;;;-145.06;38.98;87246.25;10409713;28;20096;-91
2023/06/19 10:32:10;;;;;;;0.10;0.10;;;;;;;-145.06;38.62;87342.22;10416805;28;20100;-90
2023/06/19 10:37:10;;;;;;;0.10;0.10;;;;;;;-145.06;38.69;87354.47;10391587;28;20029;-90
2023/06/19 10:42:11;;;;;;;0.10;0.10;;;;;;;-145.06;38.10;87454.53;10389023;28;20032;-90
2023/06/19 10:47:11;;;;;;;0.10;0.10;;;;;;;-145.06;37.58;87244.19;10389213;28;20101;-90
2023/06/19 10:52:11;;;;;;;0.10;0.10;;;;;;;-145.06;39.49;87242.16;10394077;28;20337;-90
2023/06/19 10:57:13;;;;;;;0.10;0.10;;;;;;;-145.06;38.45;87221.72;10405924;28;20521;-90
2023/06/19 11:02:18;;;;;;;0.00;0.00;;;;;;;-145.06;37.37;87381.03;10374819;28;20560;-90
2023/06/19 11:07:18;;;;;;;0.10;0.10;;;;;;;-145.06;39.35;87558.69;10400791;28;20391;-90
2023/06/19 11:12:20;;;;;;;0.10;0.10;;;;;;;-145.06;39.79;87479.06;10403980;28;20026;-92
2023/06/19 11:17:22;;;;;;;0.10;0.10;;;;;;;-145.06;38.32;87685.31;10392562;28;20104;-91
2023/06/19 11:22:34;;;;;;;0.10;0.10;;;;;;;-145.06;39.42;87740.47;10389983;28;20123;-89
2023/06/19 11:27:39;;;;;;;0.10;0.10;;;;;;;-145.06;40.91;87889.56;10388624;28;20032;-90
2023/06/19 11:32:44;;;;;;;0.10;0.10;;;;;;;-145.06;39.96;87860.97;10384091;28;20018;-90
2023/06/19 11:37:44;;;;;;;0.10;0.10;;;;;;;-145.06;42.02;87854.84;10386421;28;20025;-90
2023/06/19 11:42:49;;;;;;;0.10;0.10;;;;;;;-145.06;42.71;87871.19;10384076;28;20439;-90
2023/06/19 11:47:49;;;;;;;0.10;0.10;;;;;;;-145.06;43.07;87873.22;10381694;28;20076;-91
2023/06/19 11:52:50;;;;;;;0.10;0.10;;;;;;;-145.06;44.42;87969.22;10382971;28;20476;-91
2023/06/19 11:57:50;;;;;;;0.00;0.00;;;;;;;-145.06;44.29;87863.00;10401214;28;20095;-91
2023/06/19 12:02:56;;;;;;;0.10;0.10;;;;;;;-145.06;44.49;87948.78;10387513;28;20024;-89
2023/06/19 12:07:57;;;;;;;0.10;0.10;;;;;;;-145.06;44.04;88153.06;10407080;28;20021;-90
2023/06/19 12:12:57;;;;;;;0.00;0.00;;;;;;;-145.06;44.96;88069.31;10385535;28;20407;-90
2023/06/19 12:17:58;;;;;;;0.00;0.00;;;;;;;-145.06;44.98;88079.53;10384163;28;20485;-90
2023/06/19 12:22:59;;;;;;;0.10;0.10;;;;;;;-145.06;46.45;88040.72;10385622;28;20022;-90
2023/06/19 12:27:59;;;;;;;0.10;0.10;;;;;;;-145.06;47.35;87959.00;10403905;28;20021;-91
2023/06/19 12:32:59;;;;;;;0.10;0.10;;;;;;;-145.06;45.72;87877.31;10387226;28;20024;-91
2023/06/19 12:38:00;;;;;;;0.10;0.10;;;;;;;-145.06;47.02;88097.91;10393760;28;20027;-90
2023/06/19 12:43:00;;;;;;;0.00;0.00;;;;;;;-145.06;47.78;88334.84;10422958;28;20036;-90
2023/06/19 12:48:00;;;;;;;0.10;0.10;;;;;;;-145.06;51.94;88271.53;10420337;28;20017;-91
2023/06/19 12:53:01;;;;;;;0.00;0.00;;;;;;;-145.06;52.05;88187.78;10390541;28;20021;-90
2023/06/19 12:58:01;;;;;;;0.10;0.10;;;;;;;-145.06;54.06;88153.06;10390301;28;20072;-90
2023/06/19 13:03:01;;;;;;;0.00;0.00;;;;;;;-145.06;55.20;88328.72;10405832;28;20028;-90
2023/06/19 13:08:02;;;;;;;0.10;0.10;;;;;;;-145.06;54.54;88451.28;10388653;28;20100;-90
2023/06/19 13:13:02;;;;;;;0.10;0.10;;;;;;;-145.06;55.42;88479.88;10406781;28;20033;-89
2023/06/19 13:18:02;;;;;;;0.10;0.10;;;;;;;-145.06;56.62;88492.13;10408388;28;20025;-90
2023/06/19 13:23:03;;;;;;;0.00;0.00;;;;;;;-145.06;57.02;88263.34;10387019;28;20025;-90
2023/06/19 13:28:03;;;;;;;0.10;0.10;;;;;;;-145.06;57.81;88353.22;10401091;28;20078;-88
2023/06/19 13:33:03;;;;;;;0.10;0.10;;;;;;;-145.06;56.66;88539.13;10418378;28;20028;-88
2023/06/19 13:38:04;;;;;;;0.10;0.10;;;;;;;-145.06;57.50;88649.44;10406416;28;20036;-89
2023/06/19 13:43:06;;;;;;;0.10;0.10;;;;;;;-145.06;57.95;88620.84;10384909;28;20017;-90
2023/06/19 13:48:06;;;;;;;0.10;0.10;;;;;;;-145.06;57.56;88412.47;10384519;28;20013;-88
2023/06/19 13:53:07;;;;;;;0.10;0.10;;;;;;;-145.06;54.66;88281.75;10389670;28;20037;-91
2023/06/19 13:58:07;;;;;;;0.00;0.00;;;;;;;-145.06;54.74;88257.22;10381837;28;20018;-91
2023/06/19 14:03:08;;;;;;;0.00;0.00;;;;;;;-145.06;54.73;88122.41;10399304;28;20060;-91
2023/06/19 14:08:17;;;;;;;0.10;0.10;;;;;;;-145.06;51.43;88012.13;10397648;28;20017;-96
2023/06/19 14:13:17;;;;;;;0.10;0.10;;;;;;;-145.06;51.47;88016.19;10437276;28;20041;-93
2023/06/19 14:18:18;;;;;;;0.10;0.10;;;;;;;-145.06;52.13;88093.81;10426210;28;20018;-94
2023/06/19 14:23:18;;;;;;;0.00;0.00;;;;;;;-145.06;51.11;88081.56;10453331;28;20013;-94
2023/06/19 14:28:18;;;;;;;0.00;0.00;;;;;;;-145.06;53.13;88287.88;10429874;28;20022;-94
2023/06/19 14:33:19;;;;;;;0.00;0.00;;;;;;;-145.06;51.37;88195.94;10438444;28;20022;-94
2023/06/19 14:38:19;;;;;;;0.10;0.10;;;;;;;-145.06;51.17;88106.06;10450678;28;20024;-95
2023/06/19 14:43:20;;;;;;;0.08;0.08;;;;;;;-145.06;52.49;88200.03;10458122;28;20411;-96
2023/06/19 14:48:20;;;;;;;0.10;0.10;;;;;;;-145.06;50.61;88220.47;10428439;28;20037;-95
2023/06/19 14:53:21;;;;;;;0.10;0.10;;;;;;;-145.06;49.32;88175.53;10407433;28;20021;-91
2023/06/19 14:58:21;;;;;;;0.10;0.10;;;;;;;-145.06;51.21;88179.59;10390598;28;20021;-92
2023/06/19 15:03:21;;;;;;;0.10;0.10;;;;;;;-145.06;48.69;88263.34;10389225;28;20455;-93
2023/06/19 15:08:23;;;;;;;0.10;0.10;;;;;;;-145.06;49.54;88294.00;10400352;28;20017;-91
2023/06/19 15:13:24;;;;;;;0.10;0.10;;;;;;;-145.06;50.61;88387.97;10394140;28;20029;-94
2023/06/19 15:18:27;;;;;;;0.00;0.00;;;;;;;-145.06;52.40;88257.22;10392734;28;20026;-91
2023/06/19 15:23:30;;;;;;;0.10;0.10;;;;;;;-145.06;51.52;88134.66;10391758;28;20363;-92
2023/06/19 15:28:33;;;;;;;0.10;0.10;;;;;;;-145.06;49.34;88093.81;10406411;28;20020;-93
2023/06/19 15:33:33;;;;;;;0.00;0.00;;;;;;;-145.06;49.47;88298.06;10396622;28;20032;-93
2023/06/19 15:38:33;;;;;;;0.00;0.00;;;;;;;-145.06;51.05;88253.13;10381627;28;20515;-91
2023/06/19 15:43:47;;;;;;;0.10;0.10;;;;;;;-145.06;50.97;88161.22;10400688;28;20513;-93
2023/06/19 15:48:47;;;;;;;0.00;0.00;;;;;;;-145.06;48.56;88189.81;10423733;28;20048;-91
2023/06/19 15:53:47;;;;;;;0.00;0.00;;;;;;;-145.06;48.47;88189.81;10394372;28;20033;-91
2023/06/19 15:58:50;;;;;;;0.10;0.10;;;;;;;-145.06;47.13;88167.34;10385844;28;20036;-92
2023/06/19 16:03:51;;;;;;;0.00;0.00;;;;;;;-145.06;47.42;88118.31;10396563;28;20068;-92
2023/06/19 16:08:51;;;;;;;0.10;0.10;;;;;;;-145.06;47.55;88306.25;10391377;28;20018;-92
2023/06/19 16:13:52;;;;;;;0.10;0.10;;;;;;;-145.06;46.17;88547.28;10403446;28;20108;-92
2023/06/19 16:18:52;;;;;;;0.00;0.00;;;;;;;-145.06;46.71;88637.19;10402620;28;20394;-91
2023/06/19 16:23:52;;;;;;;0.03;0.03;;;;;;;-145.06;48.95;88504.41;10404971;28;20029;-92
2023/06/19 16:28:53;;;;;;;0.00;0.00;;;;;;;-145.06;48.14;88506.44;10405436;28;20052;-91
2023/06/19 16:33:53;;;;;;;0.00;0.00;;;;;;;-145.06;46.92;88473.75;10413931;28;20021;-92
2023/06/19 16:38:53;;;;;;;0.10;0.10;;;;;;;-145.06;54.97;88727.06;10400710;28;20052;-91
2023/06/19 16:43:54;;;;;;;0.00;0.00;;;;;;;-145.06;60.15;88980.38;10386758;28;20014;-89
2023/06/19 16:48:54;;;;;;;0.00;0.00;;;;;;;-145.06;63.17;88951.78;10400494;28;20017;-88
2023/06/19 16:53:54;;;;;;;0.10;0.10;;;;;;;-145.06;65.25;88910.94;10400814;28;20021;-89
2023/06/19 16:58:55;;;;;;;0.00;0.00;;;;;;;-145.06;65.98;89068.25;10399741;28;20028;-93
2023/06/19 17:03:55;;;;;;;0.08;0.08;;;;;;;-145.06;66.09;89156.09;10398486;28;20092;-91
2023/06/19 17:14:04;;;;;;;0.00;0.00;;;;;;;-145.06;67.97;89266.41;10385120;28;20072;-90
2023/06/19 17:19:05;;;;;;;0.10;0.10;;;;;;;-145.06;69.63;89213.31;10368313;28;20514;-92
2023/06/19 17:24:05;;;;;;;0.00;0.00;;;;;;;-145.06;70.02;89203.09;10364637;28;20053;-91
2023/06/19 17:29:06;;;;;;;0.00;0.00;;;;;;;-145.06;69.28;89331.81;10368664;28;20025;-93
2023/06/19 17:34:06;;;;;;;0.00;0.00;;;;;;;-145.06;69.88;89290.94;10371140;28;20117;-92
2023/06/19 17:39:07;;;;;;;0.10;0.10;;;;;;;-145.06;69.05;89362.44;10368656;28;20477;-92
2023/06/19 17:44:07;;;;;;;0.00;0.00;;;;;;;-145.06;68.86;89364.50;10367509;28;20499;-92
2023/06/19 17:49:07;;;;;;;0.00;0.00;;;;;;;-145.06;68.84;89444.19;10367569;28;20044;-92
2023/06/19 17:54:09;;;;;;;0.10;0.10;;;;;;;-145.06;68.64;89421.69;10366881;28;20025;-93
2023/06/19 17:59:14;;;;;;;0.00;0.00;;;;;;;-145.06;70.36;89446.22;10401529;28;20014;-94
2023/06/19 18:04:14;;;;;;;0.10;0.10;;;;;;;-145.06;75.96;89509.56;10403255;28;20271;-92
2023/06/19 18:09:15;;;;;;;0.00;0.00;;;;;;;-145.06;80.17;89550.44;10386678;28;20057;-92
2023/06/19 18:14:15;;;;;;;0.10;0.10;;;;;;;-145.06;83.76;89579.03;10388838;28;20052;-93
2023/06/19 18:19:15;;;;;;;0.00;0.00;;;;;;;-145.06;83.91;89634.22;10390784;28;20024;-91
2023/06/19 18:24:16;;;;;;;0.00;0.00;;;;;;;-145.06;85.16;89705.72;10391917;28;20028;-91
2023/06/19 18:29:16;;;;;;;0.00;0.00;;;;;;;-145.06;86.89;89689.38;10379660;28;20009;-92
2023/06/19 18:34:16;;;;;;;0.00;0.00;;;;;;;-145.06;87.04;89724.13;10381182;28;20021;-92
2023/06/19 18:39:17;;;;;;;0.10;0.10;;;;;;;-145.06;89.27;89844.69;10382925;28;20021;-93
2023/06/19 18:44:17;;;;;;;0.00;0.00;;;;;;;-145.06;92.48;89744.56;10382764;28;20470;-92
2023/06/19 18:49:17;;;;;;;0.00;0.00;;;;;;;-145.06;92.48;89861.03;10386096;28;20413;-92
2023/06/19 18:54:18;;;;;;;0.00;0.00;;;;;;;-145.06;92.90;89789.50;10382610;28;20021;-92
2023/06/19 18:59:19;;;;;;;0.00;0.00;;;;;;;-145.06;94.35;89989.75;10376027;28;20021;-92
2023/06/19 19:04:19;;;;;;;0.10;0.10;;;;;;;-145.06;95.08;89944.81;10378656;28;20498;-92
2023/06/19 19:09:20;;;;;;;0.00;0.00;;;;;;;-145.06;97.09;89940.72;10382418;28;20045;-93
2023/06/19 19:14:20;;;;;;;0.00;0.00;;;;;;;-145.06;98.22;89979.53;10383339;28;20029;-94
2023/06/19 19:19:21;;;;;;;0.00;0.00;;;;;;;-145.06;100.00;89981.59;10377361;28;20021;-94
2023/06/19 19:24:21;;;;;;;0.00;0.00;;;;;;;-145.06;100.00;90012.25;10382214;28;20033;-92
2023/06/19 19:29:21;;;;;;;0.10;0.10;;;;;;;-145.06;100.00;90024.50;10383563;28;20124;-93
2023/06/19 19:34:23;;;;;;;0.45;0.20;;;;;;;-145.06;100.00;90024.50;10381779;28;20391;-91
2023/06/19 19:39:24;;;;;;;0.00;0.00;;;;;;;-145.06;100.00;90096.03;10379879;28;20029;-91
2023/06/19 19:44:24;;;;;;;0.00;0.00;;;;;;;-145.06;100.00;90116.47;10391558;28;20025;-92
2023/06/19 19:49:24;;;;;;;0.00;0.00;;;;;;;-145.06;100.00;90114.44;10389344;28;20022;-92
2023/06/19 19:54:25;;;;;;;0.10;0.10;;;;;;;-145.06;100.00;90155.28;10389973;28;20079;-91
2023/06/19 19:59:26;;;;;;;0.10;0.10;;;;;;;-145.06;100.00;90163.47;10386438;28;20340;-92
2023/06/19 20:04:26;;;;;;;0.10;0.10;;;;;;;-145.06;100.00;90153.25;10378716;28;20083;-93
2023/06/19 20:09:28;;;;;;;0.10;0.10;;;;;;;-145.06;100.00;90165.50;10392023;28;20025;-92
2023/06/19 20:14:29;;;;;;;0.10;0.10;;;;;;;-145.06;100.00;90292.22;10389758;28;20033;-92
2023/06/19 20:19:29;;;;;;;0.10;0.10;;;;;;;-145.06;100.00;90290.19;10387101;28;20045;-92
2023/06/19 20:24:30;;;;;;;0.10;0.10;;;;;;;-145.06;100.00;90267.69;10388340;28;20487;-92
2023/06/19 20:29:30;;;;;;;0.10;0.10;;;;;;;-145.06;100.00;90324.91;10387835;28;20439;-92
2023/06/19 20:34:30;;;;;;;0.10;0.10;;;;;;;-145.06;100.00;90388.28;10386975;28;20080;-92
2023/06/19 20:39:31;;;;;;;0.07;0.07;;;;;;;-145.06;100.00;90376.00;10391336;28;20778;-93
2023/06/19 20:44:33;;;;;;;0.10;0.10;;;;;;;-145.06;100.00;90435.28;10385764;28;20037;-93
2023/06/19 20:49:34;;;;;;;0.10;0.10;;;;;;;-145.06;100.00;90378.06;10389960;28;20025;-92
2023/06/19 20:54:34;;;;;;;0.10;0.10;;;;;;;-145.06;100.00;90408.72;10384238;28;20030;-92
2023/06/19 20:59:35;;;;;;;0.10;0.10;;;;;;;-145.06;100.00;90500.69;10386716;28;20487;-93
2023/06/19 21:04:35;;;;;;;0.10;0.10;;;;;;;-145.06;100.00;90398.50;10383258;28;20406;-93
2023/06/19 21:09:36;;;;;;;0.10;0.10;;;;;;;-145.06;100.00;90476.16;10381779;28;20024;-93
2023/06/19 21:14:36;;;;;;;0.10;0.10;;;;;;;-145.06;100.00;90555.88;10383498;28;20502;-92
2023/06/19 21:19:36;;;;;;;0.10;0.10;;;;;;;-145.06;100.00;90508.84;10387024;28;20018;-92
2023/06/19 21:24:37;;;;;;;0.10;0.10;;;;;;;-145.06;100.00;90433.25;10382442;28;20022;-92
2023/06/19 21:29:37;;;;;;;0.10;0.10;;;;;;;-145.06;100.00;90570.16;10387055;28;20065;-92
2023/06/19 21:34:38;;;;;;;0.10;0.10;;;;;;;-145.06;100.00;90470.03;10386289;28;20116;-93
2023/06/19 21:39:38;;;;;;;0.10;0.10;;;;;;;-145.06;100.00;90553.81;10387523;28;20037;-92
2023/06/19 21:44:38;;;;;;;0.10;0.10;;;;;;;-145.06;100.00;90570.16;10388240;28;20079;-94
2023/06/19 21:49:39;;;;;;;0.10;0.10;;;;;;;-145.06;100.00;90633.53;10390996;28;20822;-93
2023/06/19 21:54:39;;;;;;;0.10;0.10;;;;;;;-145.06;100.00;90676.44;10384510;28;20033;-92
2023/06/19 21:59:40;;;;;;;0.10;0.10;;;;;;;-145.06;100.00;90592.66;10390687;28;20486;-92
2023/06/19 22:04:40;;;;;;;0.10;0.10;;;;;;;-145.06;100.00;90629.44;10384523;28;20278;-92
2023/06/19 22:09:41;;;;;;;0.10;0.10;;;;;;;-145.06;100.00;90604.91;10391448;28;20052;-92
2023/06/19 22:14:41;;;;;;;0.10;0.10;;;;;;;-145.06;100.00;90660.09;10387021;28;20051;-92
2023/06/19 22:19:41;;;;;;;0.10;0.10;;;;;;;-145.06;100.00;90639.66;10388212;28;20020;-93
2023/06/19 22:24:42;;;;;;;0.10;0.10;;;;;;;-145.06;100.00;90594.69;10375901;28;20029;-92
2023/06/19 22:29:42;;;;;;;0.10;0.10;;;;;;;-145.06;100.00;90619.22;10380513;28;20770;-91
2023/06/19 22:34:58;;;;;;;0.10;0.10;;;;;;;-145.06;100.00;90741.84;10379192;28;20029;-90
2023/06/19 22:39:58;;;;;;;0.10;0.10;;;;;;;-145.06;100.00;90725.50;10369860;28;20021;-91
2023/06/19 22:44:59;;;;;;;0.10;0.10;;;;;;;-145.06;100.00;90776.59;10386557;28;20044;-90
2023/06/19 22:50:00;;;;;;;0.10;0.10;;;;;;;-145.06;100.00;90815.44;10388978;28;20406;-90